LTBR/YEI METAR and TAF weather

Enter ICAO airport designator
Station Type Date Time Source
LTBR METAR 2022/11/30 17:50 UTC NOAA

LTBR 301750Z VRB01KT 4000 BR SCT035 BKN090 10/10 Q1016 NOSIG


Station Type Date Time Source
LTBR Decoded METAR 2022/11/30 17:50 UTC NOAA

Bursa / Yenisehir, Mil-Civ, Turkey (LTBR) 40-15-19N 029-33-45E
Nov 30, 2022 - 12:50 PM EST / 2022.11.30 1750 UTC
Wind: Variable at 1 MPH (1 KT):0
Visibility: 2 mile(s):0
Sky conditions: mostly cloudy
Weather: mist
Temperature: 50 F (10 C)
Dew Point: 50 F (10 C)
Relative Humidity: 100%
Pressure (altimeter): 30.00 in. Hg (1016 hPa)
ob: LTBR 301750Z VRB01KT 4000 BR SCT035 BKN090 10/10 Q1016 NOSIG
cycle: 18

Station Type Date Time Source
LTBR TAF 2022/11/30 18:03 UTC NOAA

TAF LTBR 301640Z 3018/0118 VRB02KT 4500 BR SCT035 BKN100 PROB40
TEMPO 3021/3022 -SHRA BR BKN030 BKN090 PROB40
TEMPO 3023/0103 -SHRA BKN030 BKN090 PROB30
TEMPO 0103/0106 1200 BCFG FEW005 BKN030 BKN090
BECMG 0106/0110 9999 NSW

Example: see airport list